createdAt,value
2022-10-23T00:01:26.608Z,19.02
2022-10-23T00:06:19.406Z,22.42
2022-10-23T00:08:46.888Z,25.88
2022-10-23T00:11:14.283Z,18.25
2022-10-23T00:13:40.956Z,20.00
2022-10-23T00:16:07.520Z,21.08
2022-10-23T00:18:34.241Z,21.13
2022-10-23T00:21:00.895Z,17.10
2022-10-23T00:23:27.264Z,18.83
2022-10-23T00:25:53.602Z,22.90
2022-10-23T00:28:20.184Z,22.45
2022-10-23T00:30:46.547Z,22.13
2022-10-23T00:33:12.926Z,20.48
2022-10-23T00:35:42.737Z,22.42
2022-10-23T00:38:09.617Z,23.60
2022-10-23T00:40:36.474Z,23.83
2022-10-23T00:43:03.047Z,25.90
2022-10-23T00:45:33.509Z,19.85
2022-10-23T00:48:00.824Z,20.45
2022-10-23T00:50:28.028Z,18.15
2022-10-23T00:52:55.874Z,17.58
2022-10-23T00:55:23.631Z,18.15
2022-10-23T01:00:21.203Z,15.23
2022-10-23T01:02:47.754Z,16.65
2022-10-23T01:05:14.133Z,17.70
2022-10-23T01:07:43.755Z,16.33
2022-10-23T01:10:14.800Z,16.55
2022-10-23T01:12:51.795Z,16.65
2022-10-23T01:15:18.099Z,20.00
2022-10-23T01:17:47.747Z,12.98
2022-10-23T01:20:22.531Z,15.95
2022-10-23T01:23:07.578Z,18.42
2022-10-23T01:25:33.926Z,18.77
2022-10-23T01:28:02.829Z,18.58
2022-10-23T01:30:29.516Z,19.88
2022-10-23T01:33:06.128Z,17.13
2022-10-23T01:35:37.940Z,22.33
2022-10-23T01:38:07.906Z,21.98
2022-10-23T01:40:37.478Z,21.48
2022-10-23T01:43:26.924Z,19.70
2022-10-23T01:45:55.087Z,18.77
2022-10-23T01:48:29.029Z,17.48
2022-10-23T01:50:57.149Z,18.85
2022-10-23T01:53:25.942Z,21.20
2022-10-23T01:55:53.402Z,22.40
2022-10-23T01:58:21.155Z,22.50
2022-10-23T02:03:15.649Z,22.77
2022-10-23T02:05:42.917Z,17.95
2022-10-23T02:08:09.298Z,22.17
2022-10-23T02:10:47.914Z,22.20
2022-10-23T02:13:14.207Z,23.05
2022-10-23T02:15:48.570Z,22.77
2022-10-23T02:18:24.039Z,18.20
2022-10-23T02:21:16.721Z,25.48
2022-10-23T02:23:52.538Z,18.50
2022-10-23T02:26:27.046Z,20.35
2022-10-23T02:29:13.618Z,23.05
2022-10-23T02:31:40.091Z,28.67
2022-10-23T02:34:06.458Z,18.77
2022-10-23T02:36:33.110Z,24.42
2022-10-23T02:38:59.525Z,30.00
2022-10-23T02:41:28.930Z,25.35
2022-10-23T02:44:10.847Z,26.52
2022-10-23T02:46:45.808Z,25.27
2022-10-23T02:49:21.274Z,26.73
2022-10-23T02:51:54.934Z,27.02
2022-10-23T02:54:24.078Z,29.05
2022-10-23T02:56:57.194Z,24.70
2022-10-23T02:59:31.119Z,25.23
2022-10-23T03:02:18.145Z,23.02
2022-10-23T03:04:45.265Z,24.52
2022-10-23T03:07:13.242Z,24.10
2022-10-23T03:09:39.980Z,27.67
2022-10-23T03:12:06.443Z,21.55
2022-10-23T03:14:32.787Z,23.90
2022-10-23T03:16:59.131Z,24.88
2022-10-23T03:19:25.486Z,22.50
2022-10-23T03:21:51.853Z,24.85
2022-10-23T03:24:18.219Z,23.13
2022-10-23T03:26:44.575Z,21.45
2022-10-23T03:29:10.894Z,22.80
2022-10-23T03:31:37.217Z,19.40
2022-10-23T03:34:06.263Z,24.67
2022-10-23T03:36:34.519Z,21.48
2022-10-23T03:39:00.856Z,19.42
2022-10-23T03:41:27.248Z,21.92
2022-10-23T03:43:53.599Z,24.45
2022-10-23T03:46:20.007Z,21.20
2022-10-23T03:48:46.374Z,25.15
2022-10-23T03:51:12.761Z,29.52
2022-10-23T03:53:39.093Z,25.73
2022-10-23T03:56:05.698Z,34.60
2022-10-23T03:58:32.085Z,21.80
2022-10-23T04:00:58.570Z,21.77
2022-10-23T04:03:25.098Z,21.50
2022-10-23T04:05:52.381Z,25.08
2022-10-23T04:08:20.156Z,29.88
2022-10-23T04:10:46.737Z,30.45
2022-10-23T04:13:13.121Z,33.35
2022-10-23T04:15:39.436Z,31.67
2022-10-23T04:18:05.798Z,27.45
2022-10-23T04:20:32.553Z,34.90
2022-10-23T04:22:58.881Z,33.58
2022-10-23T04:25:25.304Z,37.75
2022-10-23T04:27:51.653Z,34.78
2022-10-23T04:30:18.030Z,38.83
2022-10-23T04:32:44.391Z,40.72
2022-10-23T04:35:10.723Z,62.08
2022-10-23T04:37:37.033Z,34.22
2022-10-23T04:40:03.539Z,51.15
2022-10-23T04:42:30.054Z,35.88
2022-10-23T04:44:56.382Z,33.53
2022-10-23T04:47:22.768Z,25.67
2022-10-23T04:49:49.136Z,37.78
2022-10-23T04:52:15.600Z,30.20
2022-10-23T04:54:41.958Z,37.58
2022-10-23T04:57:08.346Z,26.20
2022-10-23T04:59:34.789Z,26.23
2022-10-23T05:02:01.331Z,29.52
2022-10-23T05:04:27.690Z,38.83
2022-10-23T05:06:54.067Z,23.02
2022-10-23T05:09:22.187Z,25.80
2022-10-23T05:11:48.705Z,20.65
2022-10-23T05:14:18.073Z,22.02
2022-10-23T05:16:45.615Z,19.38
2022-10-23T05:19:14.210Z,19.65
2022-10-23T05:21:41.255Z,15.18
2022-10-23T05:24:07.701Z,17.17
2022-10-23T05:26:34.048Z,12.77
2022-10-23T05:29:00.380Z,16.42
2022-10-23T05:31:26.768Z,19.27
2022-10-23T05:33:54.974Z,23.35
2022-10-23T05:36:22.023Z,21.33
2022-10-23T05:38:48.577Z,15.82
2022-10-23T05:41:14.900Z,21.02
2022-10-23T05:43:41.268Z,19.95
2022-10-23T05:46:07.638Z,15.50
2022-10-23T05:48:35.171Z,21.85
2022-10-23T05:51:09.159Z,19.27
2022-10-23T05:53:38.701Z,20.40
2022-10-23T05:56:08.468Z,26.55
2022-10-23T05:58:34.965Z,17.55
2022-10-23T06:01:05.033Z,15.45
2022-10-23T06:03:31.387Z,15.68
2022-10-23T06:05:57.722Z,17.42
2022-10-23T06:08:24.427Z,19.92
2022-10-23T06:10:50.825Z,46.47
2022-10-23T06:13:17.427Z,21.95
2022-10-23T06:15:43.780Z,13.18
2022-10-23T06:18:10.113Z,11.70
2022-10-23T06:20:37.531Z,15.35
2022-10-23T06:23:04.552Z,11.30
2022-10-23T06:25:30.989Z,9.00
2022-10-23T06:27:57.315Z,8.55
2022-10-23T06:30:23.835Z,5.38
2022-10-23T06:32:50.342Z,10.27
2022-10-23T06:35:16.739Z,5.55
2022-10-23T06:37:43.107Z,8.93
2022-10-23T06:40:09.579Z,6.70
2022-10-23T06:42:35.959Z,5.80
2022-10-23T06:45:04.909Z,5.43
2022-10-23T06:47:33.575Z,5.72
2022-10-23T06:49:59.950Z,1.77
2022-10-23T06:52:45.923Z,4.53
2022-10-23T06:55:12.684Z,0.80
2022-10-23T06:57:39.102Z,2.25
2022-10-23T07:00:05.829Z,1.08
2022-10-23T07:02:32.189Z,1.85
2022-10-23T07:04:58.564Z,3.40
2022-10-23T07:07:24.896Z,3.70
2022-10-23T07:09:51.227Z,2.38
2022-10-23T07:12:17.603Z,3.63
2022-10-23T07:14:43.925Z,3.42
2022-10-23T07:17:10.242Z,2.78
2022-10-23T07:19:36.629Z,1.77
2022-10-23T07:22:02.938Z,1.42
2022-10-23T07:24:30.842Z,2.95
2022-10-23T07:26:58.253Z,1.40
2022-10-23T07:29:24.565Z,3.88
2022-10-23T07:31:50.914Z,5.68
2022-10-23T07:34:17.245Z,3.88
2022-10-23T07:36:43.559Z,3.30
2022-10-23T07:39:09.927Z,2.60
2022-10-23T07:41:36.515Z,2.38
2022-10-23T07:44:02.947Z,2.58
2022-10-23T07:46:29.353Z,2.60
2022-10-23T07:48:55.723Z,3.00
2022-10-23T07:51:22.076Z,3.60
2022-10-23T07:53:48.567Z,1.65
2022-10-23T07:56:26.147Z,2.13
2022-10-23T08:01:23.790Z,2.15
2022-10-23T08:03:50.228Z,2.40
2022-10-23T08:06:16.625Z,1.45
2022-10-23T08:08:42.958Z,0.70
2022-10-23T08:11:10.926Z,5.72
2022-10-23T08:13:37.243Z,2.53
2022-10-23T08:16:03.665Z,1.75
2022-10-23T08:18:30.038Z,1.45
2022-10-23T08:21:00.201Z,1.55
2022-10-23T08:23:27.733Z,2.00
2022-10-23T08:26:01.416Z,1.77
2022-10-23T08:28:27.993Z,1.23
2022-10-23T08:30:55.088Z,1.95
2022-10-23T08:33:21.504Z,1.42
2022-10-23T08:35:47.900Z,1.20
2022-10-23T08:38:14.224Z,1.33
2022-10-23T08:40:44.524Z,1.88
2022-10-23T08:43:10.822Z,1.58
2022-10-23T08:45:44.283Z,1.88
2022-10-23T08:48:18.486Z,0.30
2022-10-23T08:50:48.777Z,1.38
2022-10-23T08:53:41.387Z,0.20
2022-10-23T08:56:33.878Z,0.93
2022-10-23T08:59:05.406Z,0.70
2022-10-23T09:01:36.111Z,1.40
2022-10-23T09:04:03.569Z,0.28
2022-10-23T09:09:05.122Z,2.33
2022-10-23T09:11:38.822Z,0.32
2022-10-23T09:14:26.763Z,0.10
2022-10-23T09:16:53.506Z,1.45
2022-10-23T09:19:26.261Z,0.15
2022-10-23T09:21:53.370Z,1.13
2022-10-23T09:26:48.395Z,0.85
2022-10-23T09:29:26.800Z,0.82
2022-10-23T09:31:57.700Z,0.70
2022-10-23T09:34:28.900Z,0.40
2022-10-23T09:36:57.436Z,1.10
2022-10-23T09:39:25.987Z,0.10
2022-10-23T09:41:56.295Z,1.95
2022-10-23T09:44:25.322Z,1.45
2022-10-23T09:47:06.853Z,0.68
2022-10-23T09:49:34.116Z,2.92
2022-10-23T09:52:02.667Z,1.02
2022-10-23T09:54:31.140Z,1.13
2022-10-23T09:56:59.783Z,0.70
2022-10-23T09:59:28.448Z,0.35
2022-10-23T10:01:56.934Z,1.30
2022-10-23T10:04:33.565Z,3.13
2022-10-23T10:07:01.962Z,1.88
2022-10-23T10:09:28.436Z,1.27
2022-10-23T10:11:55.459Z,1.70
2022-10-23T10:16:51.175Z,0.77
2022-10-23T10:19:17.478Z,1.75
2022-10-23T10:21:52.700Z,3.40
2022-10-23T10:24:22.565Z,2.13
2022-10-23T10:27:02.024Z,2.00
2022-10-23T10:29:51.091Z,1.52
2022-10-23T10:32:32.196Z,2.58
2022-10-23T10:34:58.577Z,2.35
2022-10-23T10:37:29.705Z,3.30
2022-10-23T10:40:00.443Z,1.90
2022-10-23T10:42:26.781Z,2.03
2022-10-23T10:44:55.905Z,2.50
2022-10-23T10:47:25.611Z,3.30
2022-10-23T10:50:11.008Z,1.80
2022-10-23T10:52:49.525Z,4.20
2022-10-23T10:55:23.362Z,1.95
2022-10-23T10:57:59.288Z,2.25
2022-10-23T11:00:26.767Z,2.45
2022-10-23T11:03:02.637Z,3.05
2022-10-23T11:05:34.729Z,2.63
2022-10-23T11:08:07.183Z,2.78
2022-10-23T11:10:33.788Z,2.88
2022-10-23T11:13:00.191Z,2.75
2022-10-23T11:15:34.895Z,2.60
2022-10-23T11:18:03.503Z,3.03
2022-10-23T11:20:39.953Z,2.45
2022-10-23T11:23:34.795Z,1.80
2022-10-23T11:26:20.294Z,1.67
2022-10-23T11:28:52.451Z,2.42
2022-10-23T11:31:37.638Z,1.67
2022-10-23T11:34:13.782Z,1.90
2022-10-23T11:36:56.885Z,0.80
2022-10-23T11:39:25.011Z,1.05
2022-10-23T11:41:53.230Z,1.30
2022-10-23T11:44:24.615Z,1.13
2022-10-23T11:47:39.335Z,1.58
2022-10-23T11:50:06.657Z,0.50
2022-10-23T11:52:36.155Z,1.42
2022-10-23T11:55:46.683Z,2.05
2022-10-23T11:58:24.127Z,2.90
2022-10-23T12:01:30.412Z,2.70
2022-10-23T12:04:06.535Z,2.15
2022-10-23T12:06:43.742Z,3.78
2022-10-23T12:09:39.534Z,2.40
2022-10-23T12:12:08.642Z,1.60
2022-10-23T12:14:38.685Z,3.55
2022-10-23T12:17:20.153Z,2.42
2022-10-23T12:19:54.350Z,3.53
2022-10-23T12:22:23.124Z,1.98
2022-10-23T12:24:49.454Z,1.25
2022-10-23T12:27:15.758Z,2.00
2022-10-23T12:30:01.455Z,1.77
2022-10-23T12:32:36.823Z,2.75
2022-10-23T12:35:24.147Z,4.25
2022-10-23T12:37:51.558Z,2.47
2022-10-23T12:40:17.947Z,3.78
2022-10-23T12:46:18.307Z,2.65
2022-10-23T12:48:53.991Z,1.75
2022-10-23T12:51:24.813Z,1.77
2022-10-23T12:53:51.329Z,1.65
2022-10-23T12:56:18.478Z,2.58
2022-10-23T13:02:23.140Z,1.15
2022-10-23T13:04:50.896Z,2.03
2022-10-23T13:07:19.076Z,1.92
2022-10-23T13:26:55.097Z,3.17
2022-10-23T13:29:40.266Z,3.10
2022-10-23T13:52:46.433Z,1.67
2022-10-23T13:57:50.031Z,1.40
2022-10-23T14:00:16.838Z,3.10
2022-10-23T14:02:43.516Z,2.60
2022-10-23T14:05:10.146Z,3.05
2022-10-23T14:07:36.645Z,1.77
2022-10-23T14:10:03.376Z,3.15
2022-10-23T14:12:29.737Z,2.30
2022-10-23T14:14:56.047Z,1.67
2022-10-23T14:17:22.459Z,1.60
2022-10-23T14:19:50.135Z,2.35
2022-10-23T14:22:16.581Z,3.40
2022-10-23T14:24:42.900Z,1.75
2022-10-23T14:27:09.278Z,2.03
2022-10-23T14:29:35.616Z,1.33
2022-10-23T14:32:02.008Z,2.33
2022-10-23T14:34:28.553Z,1.20
2022-10-23T14:37:08.107Z,3.03
2022-10-23T14:39:35.496Z,2.70
2022-10-23T14:42:01.855Z,3.80
2022-10-23T14:44:28.306Z,2.90
2022-10-23T14:46:54.736Z,1.33
2022-10-23T14:49:21.139Z,3.63
2022-10-23T14:51:47.470Z,2.72
2022-10-23T14:54:15.699Z,2.70
2022-10-23T14:56:42.097Z,1.60
2022-10-23T14:59:10.128Z,1.92
2022-10-23T15:01:43.499Z,3.10
2022-10-23T15:07:33.513Z,1.13
2022-10-23T15:09:59.930Z,1.65
2022-10-23T15:12:26.263Z,1.25
2022-10-23T15:14:52.594Z,1.77
2022-10-23T15:24:02.803Z,2.53
2022-10-23T15:29:50.786Z,1.73
2022-10-23T15:32:17.727Z,4.00
2022-10-23T15:34:44.145Z,6.63
2022-10-23T15:37:11.022Z,5.88
2022-10-23T15:39:37.418Z,4.75
2022-10-23T15:42:05.266Z,1.40
2022-10-23T15:44:32.290Z,3.30
2022-10-23T15:46:58.742Z,2.45
2022-10-23T15:49:25.965Z,3.65
2022-10-23T15:51:52.871Z,3.28
2022-10-23T15:54:19.848Z,2.15
2022-10-23T15:56:49.465Z,3.00
2022-10-23T15:59:16.660Z,2.70
2022-10-23T16:01:43.162Z,5.22
2022-10-23T16:04:09.671Z,2.80
2022-10-23T16:06:36.279Z,3.28
2022-10-23T16:09:02.671Z,4.53
2022-10-23T16:11:30.586Z,5.00
2022-10-23T16:13:57.573Z,3.17
2022-10-23T16:16:24.351Z,12.65
2022-10-23T16:18:50.801Z,3.93
2022-10-23T16:21:21.461Z,9.23
2022-10-23T16:23:47.777Z,6.97
2022-10-23T16:26:14.593Z,9.13
2022-10-23T16:28:43.227Z,12.27
2022-10-23T16:31:11.058Z,5.35
2022-10-23T16:33:37.443Z,9.68
2022-10-23T16:36:07.674Z,9.88
2022-10-23T16:38:34.304Z,6.25
2022-10-23T16:41:02.502Z,8.25
2022-10-23T16:43:32.663Z,8.55
2022-10-23T16:46:06.647Z,7.22
2022-10-23T16:48:33.443Z,9.40
2022-10-23T16:51:00.255Z,8.03
2022-10-23T16:53:29.072Z,9.17
2022-10-23T16:55:56.666Z,9.65
2022-10-23T17:00:58.152Z,7.68
2022-10-23T17:06:46.122Z,5.05
2022-10-23T17:12:35.652Z,7.75
2022-10-23T17:15:02.014Z,6.72
2022-10-23T17:17:28.317Z,5.72
2022-10-23T17:19:54.642Z,6.47
2022-10-23T17:22:21.000Z,7.07
2022-10-23T17:24:50.237Z,6.10
2022-10-23T17:27:20.185Z,5.28
2022-10-23T17:29:46.677Z,3.95
2022-10-23T17:32:13.144Z,3.83
2022-10-23T17:34:39.624Z,3.20
2022-10-23T17:37:05.967Z,5.13
2022-10-23T17:39:32.362Z,4.60
2022-10-23T17:41:58.806Z,4.80
2022-10-23T17:47:46.699Z,3.83
2022-10-23T17:50:13.828Z,5.30
2022-10-23T17:52:40.219Z,5.05
2022-10-23T17:55:06.969Z,3.83
2022-10-23T17:57:33.556Z,4.10
2022-10-23T18:06:40.312Z,4.70
2022-10-23T18:09:06.734Z,5.32
2022-10-23T18:14:56.637Z,6.85
2022-10-23T18:17:32.590Z,4.13
2022-10-23T18:20:02.029Z,5.53
2022-10-23T18:22:30.270Z,2.97
2022-10-23T18:24:56.815Z,5.07
2022-10-23T18:27:23.177Z,3.35
2022-10-23T18:29:50.492Z,3.25
2022-10-23T18:32:16.931Z,3.33
2022-10-23T18:34:43.262Z,4.05
2022-10-23T18:37:09.649Z,2.92
2022-10-23T18:39:36.021Z,3.30
2022-10-23T18:42:02.371Z,4.72
2022-10-23T18:54:48.297Z,2.85
2022-10-23T18:57:14.630Z,3.90
2022-10-23T18:59:40.924Z,5.03
2022-10-23T19:02:07.460Z,3.05
2022-10-23T19:04:36.321Z,4.32
2022-10-23T19:07:02.884Z,1.80
2022-10-23T19:09:29.261Z,5.28
2022-10-23T19:11:55.662Z,3.13
2022-10-23T19:14:21.984Z,4.82
2022-10-23T19:17:06.055Z,5.18
2022-10-23T19:19:35.279Z,6.82
2022-10-23T19:22:02.746Z,5.35
2022-10-23T19:24:36.568Z,7.28
2022-10-23T19:27:03.181Z,5.78
2022-10-23T19:29:30.182Z,6.22
2022-10-23T19:31:56.774Z,5.53
2022-10-23T19:34:24.756Z,9.25
2022-10-23T19:36:52.539Z,4.22
2022-10-23T19:41:45.419Z,3.95
2022-10-23T19:44:12.917Z,7.80
2022-10-23T19:46:39.243Z,8.20
2022-10-23T19:49:05.918Z,10.07
2022-10-23T19:51:32.596Z,6.13
2022-10-23T19:53:59.809Z,9.63
2022-10-23T19:56:26.179Z,5.28
2022-10-23T19:58:53.113Z,6.40
2022-10-23T20:01:21.692Z,8.10
2022-10-23T20:03:51.467Z,8.10
2022-10-23T20:06:19.047Z,6.05
2022-10-23T20:08:45.743Z,9.18
2022-10-23T20:11:19.406Z,4.80
2022-10-23T20:13:47.043Z,4.82
2022-10-23T20:16:24.297Z,4.70
2022-10-23T20:18:51.005Z,5.00
2022-10-23T20:21:17.610Z,8.50
2022-10-23T20:23:44.323Z,7.65
2022-10-23T20:26:12.242Z,7.47
2022-10-23T20:28:39.258Z,5.93
2022-10-23T20:33:32.650Z,4.40
2022-10-23T20:35:59.148Z,4.25
2022-10-23T20:38:25.482Z,5.68
2022-10-23T20:40:52.103Z,4.35
2022-10-23T20:43:18.467Z,12.45
2022-10-23T20:45:44.862Z,5.03
2022-10-23T20:48:11.231Z,5.68
2022-10-23T20:50:38.024Z,6.95
2022-10-23T20:53:04.404Z,4.45
2022-10-23T20:55:30.775Z,6.80
2022-10-23T20:57:57.118Z,8.55
2022-10-23T21:00:23.429Z,7.50
2022-10-23T21:02:51.329Z,4.82
2022-10-23T21:05:18.709Z,8.18
2022-10-23T21:07:45.174Z,10.40
2022-10-23T21:10:11.612Z,10.27
2022-10-23T21:12:37.969Z,7.20
2022-10-23T21:15:04.497Z,6.10
2022-10-23T21:17:35.114Z,5.03
2022-10-23T21:20:01.545Z,5.25
2022-10-23T21:22:27.881Z,9.70
2022-10-23T21:24:56.112Z,8.77
2022-10-23T21:27:22.513Z,8.25
2022-10-23T21:29:48.834Z,4.25
2022-10-23T21:32:15.182Z,6.70
2022-10-23T21:34:41.579Z,5.93
2022-10-23T21:37:12.889Z,4.90
2022-10-23T21:39:40.844Z,7.90
2022-10-23T21:42:07.475Z,5.80
2022-10-23T21:44:33.836Z,6.25
2022-10-23T21:47:00.273Z,7.30
2022-10-23T21:49:26.696Z,9.32
2022-10-23T21:51:54.925Z,9.35
2022-10-23T21:54:21.619Z,11.48
2022-10-23T21:56:49.420Z,7.45
2022-10-23T22:01:43.887Z,10.02
2022-10-23T22:04:19.847Z,11.02
2022-10-23T22:06:46.992Z,10.00
2022-10-23T22:09:14.306Z,11.38
2022-10-23T22:11:40.936Z,8.55
2022-10-23T22:14:07.574Z,9.40
2022-10-23T22:16:33.975Z,8.70
2022-10-23T22:19:00.373Z,7.75
2022-10-23T22:21:28.170Z,8.07
2022-10-23T22:26:21.353Z,12.10
2022-10-23T22:28:47.935Z,10.50
2022-10-23T22:31:18.413Z,9.98
2022-10-23T22:33:44.870Z,10.23
2022-10-23T22:36:11.250Z,21.83
2022-10-23T22:38:38.215Z,15.18
2022-10-23T22:41:04.599Z,11.20
2022-10-23T22:43:31.096Z,6.88
2022-10-23T22:46:14.104Z,8.30
2022-10-23T22:48:40.934Z,9.20
2022-10-23T22:51:09.046Z,9.00
2022-10-23T22:53:35.635Z,7.32
2022-10-23T22:56:05.081Z,9.57
2022-10-23T22:58:31.447Z,7.50
2022-10-23T23:01:03.166Z,7.32
2022-10-23T23:03:29.564Z,8.02
2022-10-23T23:05:56.002Z,12.25
2022-10-23T23:08:22.357Z,15.05
2022-10-23T23:10:54.589Z,10.57
2022-10-23T23:13:21.032Z,15.15
2022-10-23T23:15:47.443Z,13.30
2022-10-23T23:18:13.846Z,10.93
2022-10-23T23:20:40.202Z,13.02
2022-10-23T23:23:06.507Z,12.07
2022-10-23T23:25:32.945Z,10.57
2022-10-23T23:27:59.278Z,11.02
2022-10-23T23:30:25.643Z,9.00
2022-10-23T23:32:52.837Z,8.75
2022-10-23T23:35:20.100Z,7.10
2022-10-23T23:37:46.850Z,7.38
2022-10-23T23:40:13.819Z,9.15
2022-10-23T23:42:40.240Z,9.30
2022-10-23T23:45:14.169Z,10.15
2022-10-23T23:47:41.491Z,11.60
2022-10-23T23:50:09.161Z,13.57
2022-10-23T23:52:35.848Z,9.55
2022-10-23T23:55:02.212Z,13.82
2022-10-23T23:57:28.593Z,11.48
2022-10-23T23:59:55.001Z,7.75
